Terminal Aerodrome Forecast
Issued by NWS Wilmington, OH

Current Version | Previous Version | Graphics & Text | Print | Product List | Glossary On
Versions: 1 2 3 4 5 6 7 8 9 10 11 12
887
FTUS41 KILN 212330
TAFCMH
TAF
KCMH 212330Z 2200/2224 34007KT P6SM BKN080
     FM220400 34003KT P6SM SKC
     FM221200 34007KT P6SM OVC100
     FM221800 35011KT P6SM BKN050=

USA.gov is the U.S. government's official web portal to all federal, state and local government web resources and services.